Time;durP1;ratioP1;P1;durP2;ratioP2;P2;SDS_P1;SDS_P2;PMS_P1;PMS_P2;Temp;Humidity;BMP_temperature;BMP_pressure;BME280_temperature;BME280_humidity;BME280_pressure;Samples;Min_cycle;Max_cycle;Signal;HPM_P1;HPM_P2
2023/08/22 00:01:21;;;;;;;9.88;7.57;;;23.40;99.90;;;;;;5072588;28;20300;-78
2023/08/22 00:03:49;;;;;;;8.77;7.97;;;23.40;99.90;;;;;;5072448;28;20195;-78
2023/08/22 00:06:20;;;;;;;13.30;7.93;;;23.40;99.90;;;;;;5072267;28;20231;-76
2023/08/22 00:08:48;;;;;;;9.70;8.23;;;23.30;99.90;;;;;;5072190;28;20235;-77
2023/08/22 00:11:16;;;;;;;10.40;7.65;;;23.30;99.90;;;;;;5072492;28;20279;-77
2023/08/22 00:13:44;;;;;;;14.30;7.85;;;23.30;99.90;;;;;;5086513;28;20657;-77
2023/08/22 00:16:12;;;;;;;10.15;8.32;;;23.30;99.90;;;;;;5081741;28;20259;-77
2023/08/22 00:18:40;;;;;;;13.65;7.47;;;23.20;99.90;;;;;;5096391;28;20195;-77
2023/08/22 00:21:08;;;;;;;10.63;8.52;;;23.20;99.90;;;;;;5113081;28;20191;-77
2023/08/22 00:23:39;;;;;;;11.07;8.30;;;23.20;99.90;;;;;;5112856;28;20192;-77
2023/08/22 00:26:07;;;;;;;14.77;8.85;;;23.20;99.90;;;;;;5112304;28;20258;-77
2023/08/22 00:28:34;;;;;;;11.00;8.65;;;23.10;99.90;;;;;;5099690;28;20342;-77
2023/08/22 00:31:02;;;;;;;15.65;9.05;;;23.10;99.90;;;;;;5076598;28;20232;-77
2023/08/22 00:33:30;;;;;;;16.10;8.70;;;23.00;99.90;;;;;;5074560;28;20586;-77
2023/08/22 00:35:58;;;;;;;12.32;8.23;;;23.00;99.90;;;;;;5077214;28;20264;-77
2023/08/22 00:38:26;;;;;;;13.63;8.40;;;23.00;99.90;;;;;;5071943;28;20291;-77
2023/08/22 00:40:55;;;;;;;10.48;8.25;;;22.90;99.90;;;;;;5075750;28;20287;-78
2023/08/22 00:43:24;;;;;;;13.73;9.07;;;22.90;99.90;;;;;;5086692;28;20228;-78
2023/08/22 00:45:52;;;;;;;10.73;8.27;;;22.90;99.90;;;;;;5079200;28;20268;-78
2023/08/22 00:48:20;;;;;;;14.88;7.95;;;22.90;99.90;;;;;;5079592;28;20232;-77
2023/08/22 00:50:48;;;;;;;12.95;9.30;;;22.80;99.90;;;;;;5079622;28;20220;-77
2023/08/22 00:53:16;;;;;;;11.05;8.60;;;22.80;99.90;;;;;;5077952;28;20200;-77
2023/08/22 00:55:44;;;;;;;11.10;8.45;;;22.80;99.90;;;;;;5080500;28;20256;-77
2023/08/22 00:58:14;;;;;;;13.68;8.73;;;22.80;99.90;;;;;;5076616;28;20228;-77
2023/08/22 01:00:42;;;;;;;10.30;8.65;;;22.80;99.90;;;;;;5080919;28;20203;-76
2023/08/22 01:03:10;;;;;;;10.73;8.93;;;22.80;99.90;;;;;;5082715;28;20551;-77
2023/08/22 01:05:39;;;;;;;12.65;8.32;;;22.80;99.90;;;;;;5079794;28;20220;-77
2023/08/22 01:08:11;;;;;;;10.48;7.80;;;22.80;99.90;;;;;;5085161;28;20543;-76
2023/08/22 01:10:41;;;;;;;11.75;8.32;;;22.80;99.90;;;;;;5089154;28;20707;-76
2023/08/22 01:13:10;;;;;;;14.75;8.45;;;22.70;99.90;;;;;;5084555;28;20250;-77
2023/08/22 01:15:40;;;;;;;10.55;8.23;;;22.70;99.90;;;;;;5077326;28;20891;-77
2023/08/22 01:18:07;;;;;;;11.20;8.73;;;22.70;99.90;;;;;;5071526;28;20278;-77
2023/08/22 01:20:36;;;;;;;10.88;8.32;;;22.70;99.90;;;;;;5079620;28;20328;-76
2023/08/22 01:23:05;;;;;;;10.10;8.82;;;22.60;99.90;;;;;;5086865;28;20236;-76
2023/08/22 01:25:33;;;;;;;15.63;8.15;;;22.60;99.90;;;;;;5075425;28;20804;-76
2023/08/22 01:28:05;;;;;;;13.23;9.00;;;22.50;99.90;;;;;;5071008;28;20250;-76
2023/08/22 01:30:34;;;;;;;12.82;8.48;;;22.50;99.90;;;;;;5073953;28;20215;-77
2023/08/22 01:33:06;;;;;;;12.30;8.23;;;22.40;99.90;;;;;;5075041;28;20209;-76
2023/08/22 01:35:34;;;;;;;11.40;8.38;;;22.40;99.90;;;;;;5074787;28;20228;-77
2023/08/22 01:38:02;;;;;;;9.63;7.80;;;22.40;99.90;;;;;;5075092;28;20255;-76
2023/08/22 01:40:31;;;;;;;8.57;7.88;;;22.40;99.90;;;;;;5074637;28;20247;-76
2023/08/22 01:42:59;;;;;;;11.82;8.82;;;22.30;99.90;;;;;;5079443;28;20249;-76
2023/08/22 01:45:27;;;;;;;14.57;7.78;;;22.20;99.90;;;;;;5079792;28;20252;-75
2023/08/22 01:47:55;;;;;;;11.93;7.97;;;22.20;99.90;;;;;;5078179;28;20256;-75
2023/08/22 01:50:23;;;;;;;10.07;8.52;;;22.20;99.90;;;;;;5085953;28;20208;-76
2023/08/22 01:52:51;;;;;;;12.20;8.48;;;22.20;99.90;;;;;;5083952;28;20283;-76
2023/08/22 01:55:19;;;;;;;11.20;8.57;;;22.20;99.90;;;;;;5084459;28;20201;-76
2023/08/22 01:57:48;;;;;;;8.90;7.43;;;22.10;99.90;;;;;;5079589;28;20267;-76
2023/08/22 02:00:16;;;;;;;12.55;8.23;;;22.10;99.90;;;;;;5095005;28;20640;-76
2023/08/22 02:02:44;;;;;;;15.60;9.00;;;22.10;99.90;;;;;;5079486;28;20670;-76
2023/08/22 02:05:12;;;;;;;9.65;8.70;;;22.10;99.90;;;;;;5074988;28;20209;-76
2023/08/22 02:07:41;;;;;;;11.18;8.48;;;22.10;99.90;;;;;;5075544;28;20248;-77
2023/08/22 02:10:09;;;;;;;15.95;8.45;;;22.00;99.90;;;;;;5078325;28;20626;-76
2023/08/22 02:12:37;;;;;;;10.75;9.02;;;22.00;99.90;;;;;;5083364;28;20668;-77
2023/08/22 02:15:07;;;;;;;12.57;8.60;;;22.00;99.90;;;;;;5079293;28;20288;-76
2023/08/22 02:17:35;;;;;;;9.85;8.75;;;22.00;99.90;;;;;;5075302;28;20196;-77
2023/08/22 02:20:05;;;;;;;12.38;9.35;;;22.00;99.90;;;;;;5074451;28;20269;-75
2023/08/22 02:22:34;;;;;;;16.17;9.02;;;22.00;99.90;;;;;;5074899;28;20247;-78
2023/08/22 02:25:04;;;;;;;11.93;9.25;;;22.00;99.90;;;;;;5077323;28;20258;-78
2023/08/22 02:27:33;;;;;;;13.55;9.23;;;22.00;99.90;;;;;;5081334;28;20205;-78
2023/08/22 02:30:01;;;;;;;10.50;9.38;;;21.90;99.90;;;;;;5088802;28;20211;-78
2023/08/22 02:32:30;;;;;;;10.38;9.05;;;21.90;99.90;;;;;;5089874;28;20301;-78
2023/08/22 02:34:58;;;;;;;15.43;9.77;;;21.90;99.90;;;;;;5083856;28;20200;-78
2023/08/22 02:37:26;;;;;;;12.93;8.85;;;21.90;99.90;;;;;;5092178;28;20282;-78
2023/08/22 02:39:55;;;;;;;11.27;9.88;;;21.80;99.90;;;;;;5097541;28;20287;-78
2023/08/22 02:42:23;;;;;;;15.45;10.20;;;21.80;99.90;;;;;;5089499;28;20258;-78
2023/08/22 02:44:51;;;;;;;13.48;9.05;;;21.80;99.90;;;;;;5076901;28;20227;-78
2023/08/22 02:47:19;;;;;;;10.98;9.10;;;21.80;99.90;;;;;;5077078;28;20264;-78
2023/08/22 02:49:49;;;;;;;23.45;9.98;;;21.70;99.90;;;;;;5079061;28;20205;-79
2023/08/22 02:52:17;;;;;;;10.45;9.43;;;21.70;99.90;;;;;;5077250;28;20267;-78
2023/08/22 02:54:44;;;;;;;14.15;10.07;;;21.70;99.90;;;;;;5080480;28;20240;-78
2023/08/22 02:57:12;;;;;;;15.20;9.55;;;21.70;99.90;;;;;;5093889;28;20273;-78
2023/08/22 02:59:40;;;;;;;14.25;10.05;;;21.70;99.90;;;;;;5091404;28;20256;-76
2023/08/22 03:02:09;;;;;;;13.10;9.70;;;21.70;99.90;;;;;;5090065;28;20265;-76
2023/08/22 03:04:37;;;;;;;12.15;9.65;;;21.60;99.90;;;;;;5089306;28;20204;-78
2023/08/22 03:07:08;;;;;;;15.57;10.35;;;21.60;99.90;;;;;;5091065;28;20267;-77
2023/08/22 03:09:37;;;;;;;12.55;10.10;;;21.60;99.90;;;;;;5076318;28;20212;-76
2023/08/22 03:12:06;;;;;;;11.80;9.55;;;21.60;99.90;;;;;;5079032;28;20229;-76
2023/08/22 03:14:34;;;;;;;16.88;10.25;;;21.60;99.90;;;;;;5084933;28;20200;-76
2023/08/22 03:17:02;;;;;;;13.05;10.18;;;21.50;99.90;;;;;;5075606;28;20774;-76
2023/08/22 03:19:30;;;;;;;15.30;11.82;;;21.60;99.90;;;;;;5073261;28;20648;-76
2023/08/22 03:21:58;;;;;;;13.82;10.40;;;21.60;99.90;;;;;;5077833;28;20201;-76
2023/08/22 03:24:28;;;;;;;13.38;10.85;;;21.60;99.90;;;;;;5077584;28;20290;-76
2023/08/22 03:26:55;;;;;;;20.67;10.70;;;21.60;99.90;;;;;;5078274;28;20248;-76
2023/08/22 03:29:24;;;;;;;16.15;10.50;;;21.60;99.90;;;;;;5078373;28;20197;-76
2023/08/22 03:31:51;;;;;;;13.95;10.68;;;21.60;99.90;;;;;;5085582;28;20243;-76
2023/08/22 03:34:19;;;;;;;11.48;10.02;;;21.60;99.90;;;;;;5084475;28;20257;-75
2023/08/22 03:36:47;;;;;;;19.65;10.93;;;21.60;99.90;;;;;;5078911;28;20277;-75
2023/08/22 03:39:15;;;;;;;11.98;9.57;;;21.60;99.90;;;;;;5076192;28;20250;-75
2023/08/22 03:41:45;;;;;;;12.95;10.18;;;21.60;99.90;;;;;;5087164;28;20291;-75
2023/08/22 03:44:13;;;;;;;16.75;10.27;;;21.60;99.90;;;;;;5080821;28;20211;-75
2023/08/22 03:46:40;;;;;;;11.13;9.93;;;21.60;99.90;;;;;;5092648;28;20761;-75
2023/08/22 03:49:09;;;;;;;12.15;9.40;;;21.60;99.90;;;;;;5092811;28;20230;-76
2023/08/22 03:51:37;;;;;;;10.57;9.57;;;21.50;99.90;;;;;;5092471;28;20250;-77
2023/08/22 03:54:05;;;;;;;15.45;10.05;;;21.50;99.90;;;;;;5076170;28;20231;-76
2023/08/22 03:56:33;;;;;;;13.48;9.40;;;21.50;99.90;;;;;;5075597;28;20650;-76
2023/08/22 03:59:02;;;;;;;18.67;10.07;;;21.40;99.90;;;;;;5072342;28;20637;-76
2023/08/22 04:01:30;;;;;;;14.50;10.40;;;21.40;99.90;;;;;;5072391;28;20262;-77
2023/08/22 04:03:58;;;;;;;12.38;9.32;;;21.40;99.90;;;;;;5072147;28;20232;-76
2023/08/22 04:06:26;;;;;;;17.00;9.75;;;21.30;99.90;;;;;;5072224;28;20236;-76
2023/08/22 04:08:54;;;;;;;12.40;9.85;;;21.40;99.90;;;;;;5072125;28;20308;-77
2023/08/22 04:11:22;;;;;;;19.67;9.93;;;21.20;99.90;;;;;;5073604;28;20291;-77
2023/08/22 04:13:50;;;;;;;10.52;9.23;;;21.20;99.90;;;;;;5095173;28;20672;-76
2023/08/22 04:16:19;;;;;;;14.75;9.70;;;21.20;99.90;;;;;;5098184;28;20701;-77
2023/08/22 04:18:47;;;;;;;13.75;9.60;;;21.10;99.90;;;;;;5112540;28;20697;-76
2023/08/22 04:21:15;;;;;;;14.52;9.55;;;21.10;99.90;;;;;;5113307;28;20238;-77
2023/08/22 04:23:43;;;;;;;16.83;9.10;;;21.10;99.90;;;;;;5086035;28;20257;-77
2023/08/22 04:26:11;;;;;;;12.77;10.02;;;21.10;99.90;;;;;;5083580;28;20303;-77
2023/08/22 04:28:39;;;;;;;15.38;9.70;;;21.00;99.90;;;;;;5079860;28;20227;-76
2023/08/22 04:31:08;;;;;;;16.75;9.55;;;20.90;99.90;;;;;;5079308;28;20295;-76
2023/08/22 04:33:37;;;;;;;13.32;9.10;;;20.90;99.90;;;;;;5076502;28;20200;-76
2023/08/22 04:36:06;;;;;;;13.65;9.80;;;20.90;99.90;;;;;;5088690;28;20252;-76
2023/08/22 04:38:34;;;;;;;10.80;9.80;;;20.80;99.90;;;;;;5078563;28;20192;-76
2023/08/22 04:41:01;;;;;;;10.48;9.10;;;20.80;99.90;;;;;;5078096;28;20196;-76
2023/08/22 04:43:29;;;;;;;10.23;8.48;;;20.80;99.90;;;;;;5079618;28;20204;-76
2023/08/22 04:45:57;;;;;;;12.95;9.68;;;20.80;99.90;;;;;;5079600;28;20476;-77
2023/08/22 04:48:25;;;;;;;16.20;9.32;;;20.80;99.90;;;;;;5074824;28;20232;-75
2023/08/22 04:50:54;;;;;;;11.27;10.13;;;20.80;99.90;;;;;;5079936;28;20197;-76
2023/08/22 04:53:24;;;;;;;14.15;9.65;;;20.80;99.90;;;;;;5074049;28;20287;-76
2023/08/22 04:55:52;;;;;;;14.82;9.93;;;20.80;99.90;;;;;;5079907;28;20244;-76
2023/08/22 04:58:20;;;;;;;11.32;9.23;;;20.80;99.90;;;;;;5080645;28;20231;-76
2023/08/22 05:00:47;;;;;;;12.48;8.65;;;20.80;99.90;;;;;;5076541;28;20300;-76
2023/08/22 05:03:19;;;;;;;11.73;9.45;;;20.80;99.90;;;;;;5081927;28;20208;-76
2023/08/22 05:05:46;;;;;;;11.73;9.27;;;20.80;99.90;;;;;;5080897;28;20243;-75
2023/08/22 05:08:16;;;;;;;14.50;9.57;;;20.80;99.90;;;;;;5082122;28;20216;-76
2023/08/22 05:10:44;;;;;;;11.23;9.85;;;20.80;99.90;;;;;;5088994;28;20264;-77
2023/08/22 05:13:12;;;;;;;11.45;9.52;;;20.80;99.90;;;;;;5087080;28;20200;-76
2023/08/22 05:15:39;;;;;;;17.73;9.73;;;20.90;99.90;;;;;;5096566;28;20309;-76
2023/08/22 05:18:08;;;;;;;16.60;10.00;;;20.90;99.90;;;;;;5100432;28;20213;-76
2023/08/22 05:20:37;;;;;;;19.20;9.60;;;20.90;99.90;;;;;;5088877;27;20195;-69
2023/08/22 05:23:05;;;;;;;12.75;8.75;;;21.00;99.90;;;;;;5103625;28;20232;-66
2023/08/22 05:25:34;;;;;;;10.05;8.90;;;21.30;99.90;;;;;;5114123;28;20322;-67
2023/08/22 05:28:02;;;;;;;10.82;8.27;;;21.50;99.90;;;;;;5105540;28;20195;-67
2023/08/22 05:30:30;;;;;;;10.88;8.30;;;21.80;99.90;;;;;;5089503;28;20296;-67
2023/08/22 05:32:58;;;;;;;14.35;8.65;;;21.90;99.90;;;;;;5098910;28;20260;-67
2023/08/22 05:35:26;;;;;;;10.50;7.93;;;22.00;99.90;;;;;;5106588;28;20622;-67
2023/08/22 05:37:54;;;;;;;11.30;8.20;;;22.00;99.90;;;;;;5115541;28;20298;-67
2023/08/22 05:40:24;;;;;;;11.73;7.75;;;22.10;99.90;;;;;;5106536;28;20201;-67
2023/08/22 05:42:53;;;;;;;10.05;7.72;;;22.10;99.90;;;;;;5107072;28;20196;-67
2023/08/22 05:45:21;;;;;;;9.32;7.40;;;22.10;99.90;;;;;;5102500;28;20231;-67
2023/08/22 05:47:49;;;;;;;13.15;8.23;;;22.10;99.90;;;;;;5108581;28;20303;-67
2023/08/22 05:50:17;;;;;;;10.00;7.65;;;22.10;99.90;;;;;;5098402;28;20223;-67
2023/08/22 05:52:45;;;;;;;8.80;7.97;;;22.10;99.90;;;;;;5094738;28;20307;-67
2023/08/22 05:55:13;;;;;;;11.50;8.65;;;22.20;99.90;;;;;;5099560;28;20231;-66
2023/08/22 05:57:41;;;;;;;9.65;8.75;;;22.20;99.90;;;;;;5107058;28;20252;-67
2023/08/22 06:00:12;;;;;;;9.38;7.88;;;22.20;99.90;;;;;;5108006;28;20192;-67
2023/08/22 06:02:40;;;;;;;9.23;7.88;;;22.20;99.90;;;;;;5094005;28;20571;-77
2023/08/22 06:05:08;;;;;;;12.43;7.82;;;22.30;99.90;;;;;;5107803;28;20283;-77
2023/08/22 06:07:36;;;;;;;13.57;8.50;;;22.20;99.90;;;;;;5117402;28;20237;-77
2023/08/22 06:10:04;;;;;;;12.30;9.27;;;22.20;99.90;;;;;;5118714;28;20310;-77
2023/08/22 06:12:32;;;;;;;13.80;8.40;;;22.20;99.90;;;;;;5117223;28;20234;-77
2023/08/22 06:15:00;;;;;;;10.40;9.20;;;22.20;99.90;;;;;;5116718;28;20253;-77
2023/08/22 06:17:29;;;;;;;12.27;9.68;;;22.20;99.90;;;;;;5118268;28;20295;-77
2023/08/22 06:19:57;;;;;;;12.02;8.93;;;22.20;99.90;;;;;;5100066;28;20191;-77
2023/08/22 06:22:25;;;;;;;14.15;8.63;;;22.20;99.90;;;;;;5102949;28;20672;-77
2023/08/22 06:24:53;;;;;;;15.65;9.75;;;22.30;99.90;;;;;;5083461;28;20209;-77
2023/08/22 06:27:21;;;;;;;13.35;8.90;;;22.30;99.90;;;;;;5086893;28;20370;-77
2023/08/22 06:29:49;;;;;;;11.98;10.57;;;22.30;99.90;;;;;;5096237;28;20241;-76
2023/08/22 06:32:21;;;;;;;20.23;9.95;;;22.30;99.90;;;;;;5102527;28;20212;-77
2023/08/22 06:34:50;;;;;;;15.18;9.05;;;22.30;99.90;;;;;;5094684;28;20215;-78
2023/08/22 06:37:19;;;;;;;10.75;9.55;;;22.40;99.90;;;;;;5102726;28;20223;-77
2023/08/22 06:39:46;;;;;;;19.98;9.38;;;22.50;99.90;;;;;;5097877;28;20661;-77
2023/08/22 06:42:14;;;;;;;13.43;9.85;;;22.50;99.90;;;;;;5095363;28;20247;-77
2023/08/22 06:44:42;;;;;;;12.65;9.52;;;22.50;99.90;;;;;;5095789;28;20238;-78
2023/08/22 06:47:10;;;;;;;15.32;9.48;;;22.50;99.90;;;;;;5098678;28;20219;-78
2023/08/22 06:49:38;;;;;;;12.77;9.93;;;22.60;99.90;;;;;;5097839;28;20259;-77
2023/08/22 06:52:07;;;;;;;16.67;9.13;;;22.60;99.90;;;;;;5078248;28;20330;-77
2023/08/22 06:54:35;;;;;;;14.40;9.43;;;22.70;99.90;;;;;;5077059;28;20196;-76
2023/08/22 06:57:03;;;;;;;14.02;9.30;;;22.70;99.90;;;;;;5075455;28;20266;-78
2023/08/22 06:59:31;;;;;;;13.20;9.30;;;22.80;99.90;;;;;;5076463;28;20262;-78
2023/08/22 07:01:59;;;;;;;9.90;8.65;;;22.80;99.90;;;;;;5077028;28;20208;-78
2023/08/22 07:04:27;;;;;;;11.68;9.15;;;22.90;99.90;;;;;;5075110;28;20283;-78
2023/08/22 07:06:55;;;;;;;17.63;10.18;;;23.00;99.90;;;;;;5076235;28;20221;-78
2023/08/22 07:09:24;;;;;;;15.05;8.80;;;23.00;99.90;;;;;;5076177;28;20224;-78
2023/08/22 07:11:52;;;;;;;19.90;9.90;;;23.00;99.90;;;;;;5074703;28;20216;-77
2023/08/22 07:14:20;;;;;;;14.45;9.02;;;23.10;99.90;;;;;;5076584;28;20209;-77
2023/08/22 07:16:48;;;;;;;12.13;9.45;;;23.10;99.90;;;;;;5075986;28;20228;-78
2023/08/22 07:19:16;;;;;;;10.00;8.40;;;23.20;99.90;;;;;;5075027;28;20663;-77
2023/08/22 07:22:02;;;;;;;14.10;8.82;;;23.20;99.90;;;;;;5076727;28;20673;-78
2023/08/22 07:24:31;;;;;;;13.35;9.27;;;23.30;99.90;;;;;;5073775;28;20242;-78
2023/08/22 07:26:59;;;;;;;15.02;9.48;;;23.30;99.90;;;;;;5072513;28;20275;-77
2023/08/22 07:29:27;;;;;;;10.73;9.27;;;23.40;99.90;;;;;;5072276;28;20252;-77
2023/08/22 07:31:58;;;;;;;14.60;9.95;;;23.40;99.90;;;;;;5071764;28;20295;-78
2023/08/22 07:34:26;;;;;;;12.20;9.68;;;23.50;99.90;;;;;;5070987;28;20215;-77
2023/08/22 07:36:53;;;;;;;9.82;8.48;;;23.50;99.90;;;;;;5071085;28;20318;-77
2023/08/22 07:39:21;;;;;;;9.93;8.45;;;23.60;99.90;;;;;;5071505;28;20304;-77
2023/08/22 07:41:51;;;;;;;12.80;9.05;;;23.70;99.90;;;;;;5071620;28;20232;-77
2023/08/22 07:44:19;;;;;;;11.15;9.13;;;23.80;99.90;;;;;;5071566;28;20635;-77
2023/08/22 07:46:46;;;;;;;17.40;8.55;;;23.90;99.90;;;;;;5071500;28;20262;-78
2023/08/22 07:49:14;;;;;;;9.55;7.93;;;24.00;99.90;;;;;;5070307;28;20693;-77
2023/08/22 07:51:42;;;;;;;11.30;7.95;;;24.00;99.90;;;;;;5072210;28;20255;-77
2023/08/22 07:54:10;;;;;;;12.05;7.78;;;24.10;99.90;;;;;;5071987;28;20208;-77
2023/08/22 07:56:39;;;;;;;12.68;8.52;;;24.20;99.90;;;;;;5071637;28;21004;-77
2023/08/22 07:59:08;;;;;;;8.02;7.22;;;24.20;99.90;;;;;;5071515;28;20623;-77
2023/08/22 08:01:36;;;;;;;11.77;7.63;;;24.30;99.90;;;;;;5070044;28;20197;-77
2023/08/22 08:04:05;;;;;;;13.27;8.38;;;24.50;99.90;;;;;;5069462;28;20543;-77
2023/08/22 08:06:34;;;;;;;11.38;7.50;;;24.50;99.90;;;;;;5069758;28;20221;-78
2023/08/22 08:09:04;;;;;;;8.23;7.40;;;24.60;99.90;;;;;;5069725;28;20327;-77
2023/08/22 08:11:32;;;;;;;12.10;7.40;;;24.70;99.90;;;;;;5069871;28;20226;-77
2023/08/22 08:14:01;;;;;;;8.15;6.47;;;24.70;99.90;;;;;;5069727;28;20633;-77
2023/08/22 08:16:31;;;;;;;10.10;7.53;;;24.70;99.90;;;;;;5071019;28;20670;-77
2023/08/22 08:19:07;;;;;;;9.88;6.80;;;24.70;99.90;;;;;;5071767;28;20204;-77
2023/08/22 08:21:35;;;;;;;11.95;7.60;;;24.80;99.90;;;;;;5071799;28;20769;-77
2023/08/22 08:24:04;;;;;;;10.68;6.82;;;24.80;99.90;;;;;;5071823;28;20334;-77
2023/08/22 08:26:32;;;;;;;11.02;7.07;;;24.90;99.90;;;;;;5071435;28;20239;-77
2023/08/22 08:29:00;;;;;;;15.07;6.53;;;25.10;99.90;;;;;;5071399;28;20200;-77
2023/08/22 08:31:28;;;;;;;9.32;6.43;;;25.20;99.90;;;;;;5071643;28;20630;-77
2023/08/22 08:33:57;;;;;;;10.07;5.93;;;25.30;99.90;;;;;;5071541;28;20209;-77
2023/08/22 08:36:25;;;;;;;9.02;5.72;;;25.30;99.90;;;;;;5071213;28;20311;-77
2023/08/22 08:38:53;;;;;;;7.22;6.53;;;25.40;99.90;;;;;;5070708;28;20266;-78
2023/08/22 08:41:21;;;;;;;13.43;6.65;;;25.40;99.90;;;;;;5071726;28;20677;-77
2023/08/22 08:43:49;;;;;;;11.50;6.07;;;25.50;99.90;;;;;;5071540;28;20259;-77
2023/08/22 08:46:17;;;;;;;9.48;5.93;;;25.50;99.90;;;;;;5071110;28;20263;-77
2023/08/22 08:48:45;;;;;;;9.57;5.90;;;25.60;99.90;;;;;;5071309;28;20295;-77
2023/08/22 08:51:16;;;;;;;8.63;5.93;;;25.70;99.90;;;;;;5081377;28;20630;-77
2023/08/22 08:53:44;;;;;;;8.20;6.07;;;25.80;99.90;;;;;;5091730;28;20277;-77
2023/08/22 08:56:12;;;;;;;8.18;6.00;;;25.80;99.90;;;;;;5090772;28;20681;-77
2023/08/22 08:58:40;;;;;;;9.13;6.28;;;25.80;99.90;;;;;;5091884;28;20208;-78
2023/08/22 09:01:08;;;;;;;8.73;6.50;;;25.90;99.90;;;;;;5091501;28;20227;-78
2023/08/22 09:03:36;;;;;;;7.53;5.85;;;26.00;99.90;;;;;;5091460;28;20257;-77
2023/08/22 09:06:04;;;;;;;6.85;6.15;;;26.10;99.90;;;;;;5091624;28;20228;-77
2023/08/22 09:08:33;;;;;;;7.03;6.30;;;26.30;99.90;;;;;;5091099;28;20212;-77
2023/08/22 09:11:01;;;;;;;10.27;6.15;;;26.40;99.90;;;;;;5091225;28;20219;-77
2023/08/22 09:13:29;;;;;;;8.48;5.97;;;26.50;99.90;;;;;;5091393;28;20294;-77
2023/08/22 09:16:17;;;;;;;12.82;6.45;;;26.70;99.90;;;;;;5091009;28;20739;-77
2023/08/22 09:18:45;;;;;;;10.68;7.63;;;26.90;99.90;;;;;;5091222;28;20204;-77
2023/08/22 09:21:14;;;;;;;17.73;7.57;;;27.00;99.90;;;;;;5091070;28;20219;-77
2023/08/22 09:23:49;;;;;;;11.52;6.85;;;27.00;99.90;;;;;;5091040;28;20196;-77
2023/08/22 09:26:21;;;;;;;12.18;7.40;;;27.10;99.90;;;;;;5090779;28;20705;-76
2023/08/22 09:28:49;;;;;;;9.82;7.10;;;27.30;99.90;;;;;;5091563;28;20232;-77
2023/08/22 09:31:23;;;;;;;11.07;7.28;;;27.40;99.90;;;;;;5091082;28;20259;-76
2023/08/22 09:33:51;;;;;;;8.93;7.53;;;27.60;99.90;;;;;;5091545;28;20203;-77
2023/08/22 09:36:20;;;;;;;10.68;7.05;;;27.70;99.90;;;;;;5090838;28;20220;-77
2023/08/22 09:38:54;;;;;;;13.88;8.35;;;27.90;99.90;;;;;;5091237;28;20203;-77
2023/08/22 09:41:23;;;;;;;12.30;7.10;;;27.90;99.90;;;;;;5091268;28;20203;-77
2023/08/22 09:43:58;;;;;;;9.45;6.18;;;28.00;99.90;;;;;;5091079;28;20200;-76
2023/08/22 09:46:26;;;;;;;9.90;6.60;;;28.20;99.90;;;;;;5090991;28;20310;-77
2023/08/22 09:48:56;;;;;;;10.18;6.80;;;28.30;99.90;;;;;;5091307;28;20393;-77
2023/08/22 09:51:24;;;;;;;9.15;6.43;;;28.50;99.90;;;;;;5086623;28;20223;-77
2023/08/22 09:53:59;;;;;;;11.00;6.60;;;28.60;99.90;;;;;;5077705;28;20201;-77
2023/08/22 09:56:27;;;;;;;10.07;7.20;;;28.80;99.90;;;;;;5085889;28;20215;-77
2023/08/22 09:58:55;;;;;;;19.08;6.95;;;29.00;99.90;;;;;;5082212;28;20837;-77
2023/08/22 10:01:23;;;;;;;7.60;6.80;;;29.20;99.90;;;;;;5087721;28;20674;-77
2023/08/22 10:03:56;;;;;;;13.02;7.53;;;29.40;99.90;;;;;;5086237;28;20657;-77
2023/08/22 10:06:30;;;;;;;9.00;7.07;;;29.60;99.90;;;;;;5073837;28;20224;-78
2023/08/22 10:09:15;;;;;;;9.75;7.18;;;29.80;99.90;;;;;;5086637;28;20219;-77
2023/08/22 10:11:46;;;;;;;12.02;6.78;;;30.00;99.90;;;;;;5079987;28;20221;-77
2023/08/22 10:14:22;;;;;;;12.25;7.45;;;30.20;99.90;;;;;;5089240;28;20249;-77
2023/08/22 10:16:50;;;;;;;13.98;6.95;;;30.50;99.90;;;;;;5087788;28;20224;-77
2023/08/22 10:19:18;;;;;;;9.85;5.50;;;30.70;99.90;;;;;;5090593;28;20261;-77
2023/08/22 10:21:46;;;;;;;11.23;4.95;;;30.90;99.90;;;;;;5087714;28;20196;-78
2023/08/22 10:24:28;;;;;;;6.10;5.50;;;30.90;99.90;;;;;;5075553;28;20645;-77
2023/08/22 10:27:02;;;;;;;9.25;5.03;;;30.50;99.90;;;;;;5086114;28;20226;-77
2023/08/22 10:29:33;;;;;;;5.07;4.60;;;30.00;99.90;;;;;;5081337;28;20201;-77
2023/08/22 10:32:20;;;;;;;5.07;4.63;;;29.60;99.90;;;;;;5071626;28;20278;-76
2023/08/22 10:35:22;;;;;;;7.97;5.45;;;29.70;99.90;;;;;;5075922;28;20720;-77
2023/08/22 10:37:50;;;;;;;6.90;4.97;;;30.30;99.90;;;;;;5072465;28;20197;-77
2023/08/22 10:40:33;;;;;;;6.57;5.35;;;31.00;99.90;;;;;;5072940;28;20258;-76
2023/08/22 10:43:05;;;;;;;7.75;5.00;;;31.60;99.90;;;;;;5076021;28;20284;-76
2023/08/22 10:45:39;;;;;;;5.72;5.00;;;32.10;99.90;;;;;;5084695;28;20224;-76
2023/08/22 10:48:10;;;;;;;7.00;5.10;;;32.40;99.90;;;;;;5093680;28;20204;-77
2023/08/22 10:50:42;;;;;;;5.90;4.95;;;32.70;99.90;;;;;;5094445;28;20202;-77
2023/08/22 10:53:26;;;;;;;13.95;5.57;;;33.00;99.90;;;;;;5098530;28;20220;-77
2023/08/22 10:55:56;;;;;;;7.72;5.20;;;33.00;99.90;;;;;;5073149;28;20634;-77
2023/08/22 10:58:37;;;;;;;7.60;4.78;;;32.90;99.90;;;;;;5073560;28;20269;-77
2023/08/22 11:01:07;;;;;;;4.45;4.05;;;33.10;99.90;;;;;;5072996;28;20205;-77
2023/08/22 11:03:35;;;;;;;5.35;4.40;;;33.30;99.90;;;;;;5072555;28;20250;-77
2023/08/22 11:06:11;;;;;;;7.57;4.28;;;33.40;99.90;;;;;;5072920;28;20804;-77
2023/08/22 11:08:39;;;;;;;6.60;4.10;;;33.50;99.90;;;;;;5073393;28;20208;-77
2023/08/22 11:11:08;;;;;;;7.38;4.68;;;33.40;99.90;;;;;;5073026;28;20250;-77
2023/08/22 11:13:38;;;;;;;6.75;4.18;;;33.50;99.90;;;;;;5072803;28;20200;-76
2023/08/22 11:16:09;;;;;;;6.30;3.70;;;33.50;99.90;;;;;;5072756;28;20610;-77
2023/08/22 11:18:38;;;;;;;7.75;4.13;;;33.40;99.90;;;;;;5073214;28;20212;-77
2023/08/22 11:21:05;;;;;;;5.07;3.85;;;33.60;99.90;;;;;;5072766;28;20299;-77
2023/08/22 11:23:34;;;;;;;5.10;4.28;;;33.90;99.90;;;;;;5072934;28;20393;-77
2023/08/22 11:26:02;;;;;;;5.90;3.58;;;33.90;99.90;;;;;;5072275;28;20282;-77
2023/08/22 11:28:36;;;;;;;6.40;4.00;;;33.40;99.90;;;;;;5072717;28;20208;-77
2023/08/22 11:31:04;;;;;;;8.68;4.53;;;33.40;99.90;;;;;;5072808;28;20258;-77
2023/08/22 11:33:53;;;;;;;5.05;4.10;;;33.40;99.90;;;;;;5072814;28;20333;-76
2023/08/22 11:36:24;;;;;;;8.27;4.07;;;33.60;99.90;;;;;;5067424;28;20233;-77
2023/08/22 11:38:54;;;;;;;5.53;4.00;;;33.90;99.90;;;;;;5072928;28;20205;-77
2023/08/22 11:41:22;;;;;;;5.25;3.60;;;34.20;99.90;;;;;;5072611;28;20384;-76
2023/08/22 11:43:58;;;;;;;6.78;3.80;;;34.50;99.90;;;;;;5072655;28;20295;-76
2023/08/22 11:46:26;;;;;;;6.72;3.92;;;34.90;99.90;;;;;;5072178;28;20224;-77
2023/08/22 11:48:54;;;;;;;8.65;3.95;;;35.10;99.90;;;;;;5072037;28;20601;-77
2023/08/22 11:51:22;;;;;;;9.65;3.90;;;34.80;99.90;;;;;;5083641;28;20287;-77
2023/08/22 11:53:50;;;;;;;5.63;3.80;;;34.20;99.90;;;;;;5092684;28;20242;-77
2023/08/22 11:56:19;;;;;;;5.38;3.75;;;33.60;99.90;;;;;;5092550;28;20231;-77
2023/08/22 11:58:51;;;;;;;11.07;4.35;;;33.20;99.90;;;;;;5092387;28;20223;-77
2023/08/22 12:01:23;;;;;;;5.38;4.43;;;33.00;99.90;;;;;;5092289;28;20226;-77
2023/08/22 12:03:56;;;;;;;6.53;3.88;;;32.90;99.90;;;;;;5092394;28;20753;-77
2023/08/22 12:06:24;;;;;;;8.20;3.95;;;32.90;99.90;;;;;;5092162;28;20251;-77
2023/08/22 12:09:00;;;;;;;12.95;4.43;;;33.10;99.90;;;;;;5092298;28;20220;-76
2023/08/22 12:11:29;;;;;;;4.35;4.00;;;33.00;99.90;;;;;;5092289;28;20282;-77
2023/08/22 12:13:57;;;;;;;11.40;4.07;;;33.20;99.90;;;;;;5091782;28;20281;-77
2023/08/22 12:16:26;;;;;;;4.70;3.78;;;33.40;99.90;;;;;;5091847;28;20728;-77
2023/08/22 12:18:54;;;;;;;4.43;3.47;;;33.90;99.90;;;;;;5092406;28;20243;-77
2023/08/22 12:21:22;;;;;;;8.63;4.05;;;34.40;99.90;;;;;;5092268;28;20260;-77
2023/08/22 12:23:50;;;;;;;3.85;3.50;;;34.80;99.90;;;;;;5092055;28;20235;-77
2023/08/22 12:26:18;;;;;;;5.60;3.72;;;35.20;99.90;;;;;;5085696;28;20256;-77
2023/08/22 12:28:46;;;;;;;3.58;3.25;;;35.50;99.90;;;;;;5088993;28;20245;-77
2023/08/22 12:31:14;;;;;;;4.35;3.15;;;35.80;99.90;;;;;;5100422;28;20234;-77
2023/08/22 12:33:43;;;;;;;6.88;3.92;;;35.90;99.20;;;;;;5104532;28;20225;-70
2023/08/22 12:36:11;;;;;;;4.60;3.20;;;36.00;99.60;;;;;;5111835;28;20223;-75
2023/08/22 12:38:39;;;;;;;3.60;3.30;;;36.00;98.20;;;;;;5112838;28;20621;-77
2023/08/22 12:41:08;;;;;;;4.97;2.80;;;36.20;97.40;;;;;;5111941;28;20264;-77
2023/08/22 12:43:36;;;;;;;4.93;3.38;;;36.40;97.00;;;;;;5112365;28;20298;-77
2023/08/22 12:46:04;;;;;;;5.13;3.20;;;36.40;96.40;;;;;;5111974;28;20227;-77
2023/08/22 12:48:33;;;;;;;5.88;3.35;;;36.40;96.10;;;;;;5111291;28;20661;-77